sensor_id;sensor_type;location;lat;lon;timestamp;P1;durP1;ratioP1;P2;durP2;ratioP2
23730;SDS011;12046;44.702;10.622;2023-06-05T00:01:17;7.78;;;7.07;;
23730;SDS011;12046;44.702;10.622;2023-06-05T00:03:42;6.63;;;6.03;;
23730;SDS011;12046;44.702;10.622;2023-06-05T00:06:08;7.03;;;6.38;;
23730;SDS011;12046;44.702;10.622;2023-06-05T00:08:35;9.20;;;6.95;;
23730;SDS011;12046;44.702;10.622;2023-06-05T00:11:01;7.25;;;6.55;;
23730;SDS011;12046;44.702;10.622;2023-06-05T00:13:27;7.22;;;6.63;;
23730;SDS011;12046;44.702;10.622;2023-06-05T00:15:52;10.07;;;9.18;;
23730;SDS011;12046;44.702;10.622;2023-06-05T00:18:18;9.88;;;8.88;;
23730;SDS011;12046;44.702;10.622;2023-06-05T00:20:44;9.48;;;8.68;;
23730;SDS011;12046;44.702;10.622;2023-06-05T00:23:10;8.57;;;7.78;;
23730;SDS011;12046;44.702;10.622;2023-06-05T00:25:39;9.00;;;8.20;;
23730;SDS011;12046;44.702;10.622;2023-06-05T00:28:05;8.05;;;7.35;;
23730;SDS011;12046;44.702;10.622;2023-06-05T00:30:30;8.38;;;7.68;;
23730;SDS011;12046;44.702;10.622;2023-06-05T00:32:56;8.68;;;7.88;;
23730;SDS011;12046;44.702;10.622;2023-06-05T00:35:22;8.32;;;7.63;;
23730;SDS011;12046;44.702;10.622;2023-06-05T00:37:48;9.35;;;8.35;;
23730;SDS011;12046;44.702;10.622;2023-06-05T00:40:14;8.77;;;8.05;;
23730;SDS011;12046;44.702;10.622;2023-06-05T00:42:39;8.43;;;7.72;;
23730;SDS011;12046;44.702;10.622;2023-06-05T00:45:05;8.98;;;8.07;;
23730;SDS011;12046;44.702;10.622;2023-06-05T00:47:32;10.13;;;9.07;;
23730;SDS011;12046;44.702;10.622;2023-06-05T00:49:59;10.18;;;9.27;;
23730;SDS011;12046;44.702;10.622;2023-06-05T00:52:25;9.40;;;8.57;;
23730;SDS011;12046;44.702;10.622;2023-06-05T00:54:52;10.48;;;9.55;;
23730;SDS011;12046;44.702;10.622;2023-06-05T00:57:18;11.00;;;10.00;;
23730;SDS011;12046;44.702;10.622;2023-06-05T00:59:44;10.23;;;9.18;;
23730;SDS011;12046;44.702;10.622;2023-06-05T01:02:11;11.05;;;9.57;;
23730;SDS011;12046;44.702;10.622;2023-06-05T01:04:39;9.13;;;8.32;;
23730;SDS011;12046;44.702;10.622;2023-06-05T01:07:11;9.20;;;8.27;;
23730;SDS011;12046;44.702;10.622;2023-06-05T01:09:39;9.00;;;7.80;;
23730;SDS011;12046;44.702;10.622;2023-06-05T01:14:38;10.15;;;9.20;;
23730;SDS011;12046;44.702;10.622;2023-06-05T01:17:11;9.55;;;8.65;;
23730;SDS011;12046;44.702;10.622;2023-06-05T01:19:38;9.73;;;8.88;;
23730;SDS011;12046;44.702;10.622;2023-06-05T01:22:04;9.10;;;8.30;;
23730;SDS011;12046;44.702;10.622;2023-06-05T01:24:30;9.77;;;8.88;;
23730;SDS011;12046;44.702;10.622;2023-06-05T01:29:37;8.48;;;7.68;;
23730;SDS011;12046;44.702;10.622;2023-06-05T01:32:08;8.88;;;8.10;;
23730;SDS011;12046;44.702;10.622;2023-06-05T01:34:41;8.95;;;8.15;;
23730;SDS011;12046;44.702;10.622;2023-06-05T01:37:09;9.07;;;8.27;;
23730;SDS011;12046;44.702;10.622;2023-06-05T01:39:40;12.73;;;8.77;;
23730;SDS011;12046;44.702;10.622;2023-06-05T01:42:08;9.15;;;8.23;;
23730;SDS011;12046;44.702;10.622;2023-06-05T01:44:35;8.80;;;8.10;;
23730;SDS011;12046;44.702;10.622;2023-06-05T01:47:01;9.05;;;8.25;;
23730;SDS011;12046;44.702;10.622;2023-06-05T01:49:27;9.32;;;8.55;;
23730;SDS011;12046;44.702;10.622;2023-06-05T01:51:53;10.63;;;9.73;;
23730;SDS011;12046;44.702;10.622;2023-06-05T01:54:20;10.65;;;9.75;;
23730;SDS011;12046;44.702;10.622;2023-06-05T01:56:49;9.15;;;8.25;;
23730;SDS011;12046;44.702;10.622;2023-06-05T01:59:15;12.05;;;8.70;;
23730;SDS011;12046;44.702;10.622;2023-06-05T02:01:41;9.25;;;8.45;;
23730;SDS011;12046;44.702;10.622;2023-06-05T02:04:09;9.23;;;8.40;;
23730;SDS011;12046;44.702;10.622;2023-06-05T02:06:35;9.88;;;8.98;;
23730;SDS011;12046;44.702;10.622;2023-06-05T02:09:09;9.55;;;8.63;;
23730;SDS011;12046;44.702;10.622;2023-06-05T02:11:38;11.15;;;10.15;;
23730;SDS011;12046;44.702;10.622;2023-06-05T02:14:04;9.30;;;8.40;;
23730;SDS011;12046;44.702;10.622;2023-06-05T02:16:37;9.73;;;8.82;;
23730;SDS011;12046;44.702;10.622;2023-06-05T02:19:03;10.02;;;9.18;;
23730;SDS011;12046;44.702;10.622;2023-06-05T02:21:29;8.93;;;7.78;;
23730;SDS011;12046;44.702;10.622;2023-06-05T02:23:57;9.00;;;7.93;;
23730;SDS011;12046;44.702;10.622;2023-06-05T02:26:26;10.82;;;9.93;;
23730;SDS011;12046;44.702;10.622;2023-06-05T02:28:53;8.80;;;8.07;;
23730;SDS011;12046;44.702;10.622;2023-06-05T02:31:23;9.23;;;7.75;;
23730;SDS011;12046;44.702;10.622;2023-06-05T02:33:52;8.52;;;7.72;;
23730;SDS011;12046;44.702;10.622;2023-06-05T02:36:20;8.57;;;7.63;;
23730;SDS011;12046;44.702;10.622;2023-06-05T02:38:47;8.63;;;6.95;;
23730;SDS011;12046;44.702;10.622;2023-06-05T02:41:19;7.57;;;6.97;;
23730;SDS011;12046;44.702;10.622;2023-06-05T02:43:46;8.15;;;7.38;;
23730;SDS011;12046;44.702;10.622;2023-06-05T02:46:12;8.30;;;7.60;;
23730;SDS011;12046;44.702;10.622;2023-06-05T02:48:38;8.48;;;7.72;;
23730;SDS011;12046;44.702;10.622;2023-06-05T02:51:03;7.90;;;7.20;;
23730;SDS011;12046;44.702;10.622;2023-06-05T02:53:31;7.57;;;6.82;;
23730;SDS011;12046;44.702;10.622;2023-06-05T02:55:57;8.23;;;7.63;;
23730;SDS011;12046;44.702;10.622;2023-06-05T02:58:26;7.65;;;6.95;;
23730;SDS011;12046;44.702;10.622;2023-06-05T03:00:53;7.75;;;7.15;;
23730;SDS011;12046;44.702;10.622;2023-06-05T03:03:21;7.82;;;7.22;;
23730;SDS011;12046;44.702;10.622;2023-06-05T03:05:52;8.15;;;7.35;;
23730;SDS011;12046;44.702;10.622;2023-06-05T03:08:18;9.15;;;8.35;;
23730;SDS011;12046;44.702;10.622;2023-06-05T03:10:44;9.60;;;8.80;;
23730;SDS011;12046;44.702;10.622;2023-06-05T03:13:09;15.30;;;13.90;;
23730;SDS011;12046;44.702;10.622;2023-06-05T03:15:35;12.75;;;11.57;;
23730;SDS011;12046;44.702;10.622;2023-06-05T03:18:01;12.98;;;11.82;;
23730;SDS011;12046;44.702;10.622;2023-06-05T03:20:26;11.90;;;10.75;;
23730;SDS011;12046;44.702;10.622;2023-06-05T03:22:52;11.40;;;10.50;;
23730;SDS011;12046;44.702;10.622;2023-06-05T03:25:18;11.15;;;10.10;;
23730;SDS011;12046;44.702;10.622;2023-06-05T03:27:44;10.93;;;9.90;;
23730;SDS011;12046;44.702;10.622;2023-06-05T03:30:11;13.68;;;12.40;;
23730;SDS011;12046;44.702;10.622;2023-06-05T03:32:41;12.73;;;11.63;;
23730;SDS011;12046;44.702;10.622;2023-06-05T03:35:07;12.43;;;11.05;;
23730;SDS011;12046;44.702;10.622;2023-06-05T03:37:33;12.75;;;11.52;;
23730;SDS011;12046;44.702;10.622;2023-06-05T03:39:59;16.05;;;14.55;;
23730;SDS011;12046;44.702;10.622;2023-06-05T03:42:25;13.02;;;11.68;;
23730;SDS011;12046;44.702;10.622;2023-06-05T03:44:51;11.60;;;10.32;;
23730;SDS011;12046;44.702;10.622;2023-06-05T03:47:17;15.43;;;14.02;;
23730;SDS011;12046;44.702;10.622;2023-06-05T03:49:45;15.82;;;14.25;;
23730;SDS011;12046;44.702;10.622;2023-06-05T03:52:15;13.70;;;12.38;;
23730;SDS011;12046;44.702;10.622;2023-06-05T03:54:41;22.45;;;19.23;;
23730;SDS011;12046;44.702;10.622;2023-06-05T03:57:11;17.88;;;16.17;;
23730;SDS011;12046;44.702;10.622;2023-06-05T03:59:39;15.68;;;13.40;;
23730;SDS011;12046;44.702;10.622;2023-06-05T04:02:05;13.30;;;12.18;;
23730;SDS011;12046;44.702;10.622;2023-06-05T04:04:32;12.00;;;10.98;;
23730;SDS011;12046;44.702;10.622;2023-06-05T04:06:58;11.68;;;10.60;;
23730;SDS011;12046;44.702;10.622;2023-06-05T04:09:23;11.15;;;10.05;;
23730;SDS011;12046;44.702;10.622;2023-06-05T04:11:50;12.35;;;11.10;;
23730;SDS011;12046;44.702;10.622;2023-06-05T04:14:16;10.13;;;9.23;;
23730;SDS011;12046;44.702;10.622;2023-06-05T04:16:41;9.80;;;8.90;;
23730;SDS011;12046;44.702;10.622;2023-06-05T04:19:08;8.90;;;8.10;;
23730;SDS011;12046;44.702;10.622;2023-06-05T04:21:35;8.63;;;7.88;;
23730;SDS011;12046;44.702;10.622;2023-06-05T04:24:05;9.07;;;8.10;;
23730;SDS011;12046;44.702;10.622;2023-06-05T04:26:34;8.93;;;8.13;;
23730;SDS011;12046;44.702;10.622;2023-06-05T04:29:06;10.27;;;9.27;;
23730;SDS011;12046;44.702;10.622;2023-06-05T04:31:40;13.93;;;12.63;;
23730;SDS011;12046;44.702;10.622;2023-06-05T04:34:07;17.23;;;15.60;;
23730;SDS011;12046;44.702;10.622;2023-06-05T04:36:33;13.45;;;12.13;;
23730;SDS011;12046;44.702;10.622;2023-06-05T04:39:00;10.77;;;9.80;;
23730;SDS011;12046;44.702;10.622;2023-06-05T04:41:28;15.40;;;14.00;;
23730;SDS011;12046;44.702;10.622;2023-06-05T04:43:55;14.43;;;12.73;;
23730;SDS011;12046;44.702;10.622;2023-06-05T04:46:22;12.93;;;11.73;;
23730;SDS011;12046;44.702;10.622;2023-06-05T04:48:48;14.60;;;13.10;;
23730;SDS011;12046;44.702;10.622;2023-06-05T04:51:15;11.88;;;10.77;;
23730;SDS011;12046;44.702;10.622;2023-06-05T04:53:41;12.48;;;11.40;;
23730;SDS011;12046;44.702;10.622;2023-06-05T04:56:07;11.15;;;10.15;;
23730;SDS011;12046;44.702;10.622;2023-06-05T04:58:34;10.98;;;9.95;;
23730;SDS011;12046;44.702;10.622;2023-06-05T05:01:00;12.05;;;11.05;;
23730;SDS011;12046;44.702;10.622;2023-06-05T05:03:30;12.65;;;10.98;;
23730;SDS011;12046;44.702;10.622;2023-06-05T05:05:57;12.45;;;11.15;;
23730;SDS011;12046;44.702;10.622;2023-06-05T05:08:22;13.10;;;11.80;;
23730;SDS011;12046;44.702;10.622;2023-06-05T05:10:48;12.32;;;11.23;;
23730;SDS011;12046;44.702;10.622;2023-06-05T05:13:14;12.07;;;10.90;;
23730;SDS011;12046;44.702;10.622;2023-06-05T05:15:40;14.95;;;13.38;;
23730;SDS011;12046;44.702;10.622;2023-06-05T05:18:05;13.85;;;12.45;;
23730;SDS011;12046;44.702;10.622;2023-06-05T05:20:31;15.20;;;13.45;;
23730;SDS011;12046;44.702;10.622;2023-06-05T05:22:59;12.68;;;11.27;;
23730;SDS011;12046;44.702;10.622;2023-06-05T05:25:25;12.32;;;11.10;;
23730;SDS011;12046;44.702;10.622;2023-06-05T05:27:51;11.90;;;10.75;;
23730;SDS011;12046;44.702;10.622;2023-06-05T05:30:17;10.75;;;9.82;;
23730;SDS011;12046;44.702;10.622;2023-06-05T05:32:43;11.32;;;10.23;;
23730;SDS011;12046;44.702;10.622;2023-06-05T05:35:08;11.80;;;10.60;;
23730;SDS011;12046;44.702;10.622;2023-06-05T05:37:34;12.48;;;10.80;;
23730;SDS011;12046;44.702;10.622;2023-06-05T05:40:00;12.23;;;11.00;;
23730;SDS011;12046;44.702;10.622;2023-06-05T05:42:25;14.23;;;12.18;;
23730;SDS011;12046;44.702;10.622;2023-06-05T05:44:51;12.55;;;11.35;;
23730;SDS011;12046;44.702;10.622;2023-06-05T05:47:17;11.40;;;10.30;;
23730;SDS011;12046;44.702;10.622;2023-06-05T05:49:43;11.13;;;10.10;;
23730;SDS011;12046;44.702;10.622;2023-06-05T05:52:08;12.20;;;11.00;;
23730;SDS011;12046;44.702;10.622;2023-06-05T05:54:35;11.45;;;10.07;;
23730;SDS011;12046;44.702;10.622;2023-06-05T05:57:00;11.55;;;10.35;;
23730;SDS011;12046;44.702;10.622;2023-06-05T05:59:26;10.73;;;9.63;;
23730;SDS011;12046;44.702;10.622;2023-06-05T06:01:52;11.43;;;10.43;;
23730;SDS011;12046;44.702;10.622;2023-06-05T06:04:18;10.88;;;9.88;;
23730;SDS011;12046;44.702;10.622;2023-06-05T06:06:44;12.82;;;11.52;;
23730;SDS011;12046;44.702;10.622;2023-06-05T06:09:17;14.83;;;13.33;;
23730;SDS011;12046;44.702;10.622;2023-06-05T06:11:43;15.20;;;12.63;;
23730;SDS011;12046;44.702;10.622;2023-06-05T06:14:09;16.58;;;15.05;;
23730;SDS011;12046;44.702;10.622;2023-06-05T06:16:36;16.92;;;15.27;;
23730;SDS011;12046;44.702;10.622;2023-06-05T06:19:03;14.27;;;12.88;;
23730;SDS011;12046;44.702;10.622;2023-06-05T06:21:29;15.55;;;12.57;;
23730;SDS011;12046;44.702;10.622;2023-06-05T06:23:55;16.33;;;14.77;;
23730;SDS011;12046;44.702;10.622;2023-06-05T06:26:22;22.13;;;19.92;;
23730;SDS011;12046;44.702;10.622;2023-06-05T06:28:48;19.40;;;17.60;;
23730;SDS011;12046;44.702;10.622;2023-06-05T06:31:13;18.02;;;15.80;;
23730;SDS011;12046;44.702;10.622;2023-06-05T06:33:40;17.20;;;15.50;;
23730;SDS011;12046;44.702;10.622;2023-06-05T06:36:05;14.52;;;13.13;;
23730;SDS011;12046;44.702;10.622;2023-06-05T06:38:31;15.63;;;14.13;;
23730;SDS011;12046;44.702;10.622;2023-06-05T06:40:58;15.50;;;14.00;;
23730;SDS011;12046;44.702;10.622;2023-06-05T06:43:24;15.20;;;13.77;;
23730;SDS011;12046;44.702;10.622;2023-06-05T06:45:52;16.38;;;14.90;;
23730;SDS011;12046;44.702;10.622;2023-06-05T06:48:18;19.45;;;17.55;;
23730;SDS011;12046;44.702;10.622;2023-06-05T06:50:43;15.32;;;13.93;;
23730;SDS011;12046;44.702;10.622;2023-06-05T06:53:10;15.07;;;13.68;;
23730;SDS011;12046;44.702;10.622;2023-06-05T06:55:35;15.82;;;14.43;;
23730;SDS011;12046;44.702;10.622;2023-06-05T06:58:01;15.82;;;14.23;;
23730;SDS011;12046;44.702;10.622;2023-06-05T07:00:27;14.63;;;13.18;;
23730;SDS011;12046;44.702;10.622;2023-06-05T07:02:53;12.98;;;11.77;;
23730;SDS011;12046;44.702;10.622;2023-06-05T07:05:19;13.68;;;12.38;;
23730;SDS011;12046;44.702;10.622;2023-06-05T07:07:45;13.80;;;12.50;;
23730;SDS011;12046;44.702;10.622;2023-06-05T07:10:11;12.95;;;11.80;;
23730;SDS011;12046;44.702;10.622;2023-06-05T07:12:37;14.18;;;12.88;;
23730;SDS011;12046;44.702;10.622;2023-06-05T07:15:03;13.77;;;12.52;;
23730;SDS011;12046;44.702;10.622;2023-06-05T07:17:29;13.88;;;12.48;;
23730;SDS011;12046;44.702;10.622;2023-06-05T07:19:58;13.43;;;12.13;;
23730;SDS011;12046;44.702;10.622;2023-06-05T07:22:24;13.23;;;12.10;;
23730;SDS011;12046;44.702;10.622;2023-06-05T07:24:51;13.70;;;12.40;;
23730;SDS011;12046;44.702;10.622;2023-06-05T07:27:20;13.52;;;12.32;;
23730;SDS011;12046;44.702;10.622;2023-06-05T07:29:47;15.65;;;14.23;;
23730;SDS011;12046;44.702;10.622;2023-06-05T07:32:13;13.80;;;12.50;;
23730;SDS011;12046;44.702;10.622;2023-06-05T07:34:39;16.65;;;15.02;;
23730;SDS011;12046;44.702;10.622;2023-06-05T07:37:04;15.57;;;14.00;;
23730;SDS011;12046;44.702;10.622;2023-06-05T07:39:32;13.63;;;12.23;;
23730;SDS011;12046;44.702;10.622;2023-06-05T07:41:58;13.40;;;12.10;;
23730;SDS011;12046;44.702;10.622;2023-06-05T07:44:24;10.88;;;9.88;;
23730;SDS011;12046;44.702;10.622;2023-06-05T07:46:50;15.63;;;13.98;;
23730;SDS011;12046;44.702;10.622;2023-06-05T07:49:17;13.35;;;12.15;;
23730;SDS011;12046;44.702;10.622;2023-06-05T07:51:43;16.30;;;14.80;;
23730;SDS011;12046;44.702;10.622;2023-06-05T07:54:12;12.38;;;11.18;;
23730;SDS011;12046;44.702;10.622;2023-06-05T07:56:39;12.80;;;11.55;;
23730;SDS011;12046;44.702;10.622;2023-06-05T07:59:05;12.98;;;11.20;;
23730;SDS011;12046;44.702;10.622;2023-06-05T08:01:35;14.73;;;12.23;;
23730;SDS011;12046;44.702;10.622;2023-06-05T08:04:02;14.82;;;13.45;;
23730;SDS011;12046;44.702;10.622;2023-06-05T08:06:31;12.05;;;10.95;;
23730;SDS011;12046;44.702;10.622;2023-06-05T08:08:58;12.95;;;11.70;;
23730;SDS011;12046;44.702;10.622;2023-06-05T08:11:25;11.68;;;10.60;;
23730;SDS011;12046;44.702;10.622;2023-06-05T08:13:51;11.00;;;10.00;;
23730;SDS011;12046;44.702;10.622;2023-06-05T08:16:17;11.35;;;10.27;;
23730;SDS011;12046;44.702;10.622;2023-06-05T08:18:43;10.68;;;9.68;;
23730;SDS011;12046;44.702;10.622;2023-06-05T08:21:09;8.95;;;8.05;;
23730;SDS011;12046;44.702;10.622;2023-06-05T08:23:34;8.52;;;7.68;;
23730;SDS011;12046;44.702;10.622;2023-06-05T08:26:01;8.65;;;7.85;;
23730;SDS011;12046;44.702;10.622;2023-06-05T08:28:35;8.73;;;7.82;;
23730;SDS011;12046;44.702;10.622;2023-06-05T08:31:00;9.02;;;8.18;;
23730;SDS011;12046;44.702;10.622;2023-06-05T08:33:26;7.68;;;7.00;;
23730;SDS011;12046;44.702;10.622;2023-06-05T08:35:52;8.20;;;7.50;;
23730;SDS011;12046;44.702;10.622;2023-06-05T08:38:18;6.50;;;6.00;;
23730;SDS011;12046;44.702;10.622;2023-06-05T08:40:43;7.88;;;6.93;;
23730;SDS011;12046;44.702;10.622;2023-06-05T08:43:15;5.50;;;5.00;;
23730;SDS011;12046;44.702;10.622;2023-06-05T08:45:41;4.80;;;4.40;;
23730;SDS011;12046;44.702;10.622;2023-06-05T08:48:07;4.22;;;3.92;;
23730;SDS011;12046;44.702;10.622;2023-06-05T08:50:38;4.88;;;4.40;;
23730;SDS011;12046;44.702;10.622;2023-06-05T08:53:05;5.22;;;4.63;;
23730;SDS011;12046;44.702;10.622;2023-06-05T08:55:31;5.32;;;4.93;;
23730;SDS011;12046;44.702;10.622;2023-06-05T08:57:57;5.85;;;5.40;;
23730;SDS011;12046;44.702;10.622;2023-06-05T09:00:24;6.78;;;6.18;;
23730;SDS011;12046;44.702;10.622;2023-06-05T09:02:50;6.55;;;6.05;;
23730;SDS011;12046;44.702;10.622;2023-06-05T09:05:16;9.70;;;8.32;;
23730;SDS011;12046;44.702;10.622;2023-06-05T09:07:42;9.40;;;8.35;;
23730;SDS011;12046;44.702;10.622;2023-06-05T09:10:21;9.32;;;8.52;;
23730;SDS011;12046;44.702;10.622;2023-06-05T09:12:52;8.57;;;7.78;;
23730;SDS011;12046;44.702;10.622;2023-06-05T09:15:25;7.70;;;7.10;;
23730;SDS011;12046;44.702;10.622;2023-06-05T09:18:08;8.80;;;7.18;;
23730;SDS011;12046;44.702;10.622;2023-06-05T09:20:39;8.48;;;7.68;;
23730;SDS011;12046;44.702;10.622;2023-06-05T09:23:28;10.40;;;9.57;;
23730;SDS011;12046;44.702;10.622;2023-06-05T09:26:02;9.85;;;8.93;;
23730;SDS011;12046;44.702;10.622;2023-06-05T09:28:28;9.88;;;9.05;;
23730;SDS011;12046;44.702;10.622;2023-06-05T09:31:01;12.07;;;10.98;;
23730;SDS011;12046;44.702;10.622;2023-06-05T09:33:29;9.82;;;9.02;;
23730;SDS011;12046;44.702;10.622;2023-06-05T09:36:03;11.05;;;10.10;;
23730;SDS011;12046;44.702;10.622;2023-06-05T09:38:34;8.48;;;7.70;;
23730;SDS011;12046;44.702;10.622;2023-06-05T09:41:04;7.90;;;7.20;;
23730;SDS011;12046;44.702;10.622;2023-06-05T09:43:30;7.72;;;7.13;;
23730;SDS011;12046;44.702;10.622;2023-06-05T09:45:57;6.70;;;6.20;;
23730;SDS011;12046;44.702;10.622;2023-06-05T09:48:22;6.72;;;6.10;;
23730;SDS011;12046;44.702;10.622;2023-06-05T09:50:50;6.05;;;5.53;;
23730;SDS011;12046;44.702;10.622;2023-06-05T09:53:17;6.60;;;6.00;;
23730;SDS011;12046;44.702;10.622;2023-06-05T09:55:45;7.50;;;6.90;;
23730;SDS011;12046;44.702;10.622;2023-06-05T09:58:11;8.52;;;7.82;;
23730;SDS011;12046;44.702;10.622;2023-06-05T10:00:39;6.00;;;5.50;;
23730;SDS011;12046;44.702;10.622;2023-06-05T10:03:12;6.57;;;6.00;;
23730;SDS011;12046;44.702;10.622;2023-06-05T10:05:43;7.20;;;6.50;;
23730;SDS011;12046;44.702;10.622;2023-06-05T10:08:11;5.93;;;5.43;;
23730;SDS011;12046;44.702;10.622;2023-06-05T10:10:38;5.88;;;5.38;;
23730;SDS011;12046;44.702;10.622;2023-06-05T10:13:04;5.95;;;5.38;;
23730;SDS011;12046;44.702;10.622;2023-06-05T10:15:31;4.78;;;4.35;;
23730;SDS011;12046;44.702;10.622;2023-06-05T10:17:58;4.25;;;3.95;;
23730;SDS011;12046;44.702;10.622;2023-06-05T10:20:25;4.45;;;4.15;;
23730;SDS011;12046;44.702;10.622;2023-06-05T10:22:52;4.07;;;3.75;;
23730;SDS011;12046;44.702;10.622;2023-06-05T10:25:19;3.70;;;3.40;;
23730;SDS011;12046;44.702;10.622;2023-06-05T10:36:42;3.65;;;3.30;;
23730;SDS011;12046;44.702;10.622;2023-06-05T10:39:09;4.05;;;3.70;;
23730;SDS011;12046;44.702;10.622;2023-06-05T10:41:36;3.47;;;3.25;;
23730;SDS011;12046;44.702;10.622;2023-06-05T10:44:02;3.60;;;3.33;;
23730;SDS011;12046;44.702;10.622;2023-06-05T10:54:03;3.22;;;3.03;;
23730;SDS011;12046;44.702;10.622;2023-06-05T10:59:43;2.70;;;2.50;;
23730;SDS011;12046;44.702;10.622;2023-06-05T11:07:16;3.55;;;3.25;;
23730;SDS011;12046;44.702;10.622;2023-06-05T11:13:12;3.33;;;3.03;;
23730;SDS011;12046;44.702;10.622;2023-06-05T11:15:16;3.72;;;3.42;;
23730;SDS011;12046;44.702;10.622;2023-06-05T11:20:58;3.40;;;3.10;;
23730;SDS011;12046;44.702;10.622;2023-06-05T11:23:25;3.17;;;2.97;;
23730;SDS011;12046;44.702;10.622;2023-06-05T11:25:57;3.00;;;2.80;;
23730;SDS011;12046;44.702;10.622;2023-06-05T11:28:43;3.75;;;3.45;;
23730;SDS011;12046;44.702;10.622;2023-06-05T11:31:09;3.55;;;3.25;;
23730;SDS011;12046;44.702;10.622;2023-06-05T11:33:35;4.38;;;3.97;;
23730;SDS011;12046;44.702;10.622;2023-06-05T11:36:03;3.75;;;3.35;;
23730;SDS011;12046;44.702;10.622;2023-06-05T11:38:32;4.78;;;4.38;;
23730;SDS011;12046;44.702;10.622;2023-06-05T11:40:58;5.28;;;4.78;;
23730;SDS011;12046;44.702;10.622;2023-06-05T11:43:24;4.68;;;4.25;;
23730;SDS011;12046;44.702;10.622;2023-06-05T11:45:51;4.63;;;3.42;;
23730;SDS011;12046;44.702;10.622;2023-06-05T11:48:18;3.53;;;3.22;;
23730;SDS011;12046;44.702;10.622;2023-06-05T11:50:51;3.05;;;2.85;;
23730;SDS011;12046;44.702;10.622;2023-06-05T11:53:22;3.67;;;3.47;;
23730;SDS011;12046;44.702;10.622;2023-06-05T11:55:49;3.47;;;3.20;;
23730;SDS011;12046;44.702;10.622;2023-06-05T11:58:24;3.47;;;3.15;;
23730;SDS011;12046;44.702;10.622;2023-06-05T12:00:51;4.03;;;2.80;;
23730;SDS011;12046;44.702;10.622;2023-06-05T12:03:20;3.45;;;3.20;;
23730;SDS011;12046;44.702;10.622;2023-06-05T12:05:47;4.40;;;3.92;;
23730;SDS011;12046;44.702;10.622;2023-06-05T12:08:23;5.03;;;4.00;;
23730;SDS011;12046;44.702;10.622;2023-06-05T12:10:53;5.07;;;4.40;;
23730;SDS011;12046;44.702;10.622;2023-06-05T12:13:19;3.85;;;3.55;;
23730;SDS011;12046;44.702;10.622;2023-06-05T12:15:58;4.07;;;3.78;;
23730;SDS011;12046;44.702;10.622;2023-06-05T12:18:33;3.92;;;3.63;;
23730;SDS011;12046;44.702;10.622;2023-06-05T12:20:59;6.05;;;5.55;;
23730;SDS011;12046;44.702;10.622;2023-06-05T12:23:28;4.97;;;4.57;;
23730;SDS011;12046;44.702;10.622;2023-06-05T12:25:59;5.07;;;4.43;;
23730;SDS011;12046;44.702;10.622;2023-06-05T12:28:27;4.10;;;3.80;;
23730;SDS011;12046;44.702;10.622;2023-06-05T12:30:53;5.03;;;4.63;;
23730;SDS011;12046;44.702;10.622;2023-06-05T12:33:19;4.95;;;4.55;;
23730;SDS011;12046;44.702;10.622;2023-06-05T12:35:48;6.78;;;6.28;;
23730;SDS011;12046;44.702;10.622;2023-06-05T12:38:13;5.78;;;5.28;;
23730;SDS011;12046;44.702;10.622;2023-06-05T12:40:39;5.25;;;4.85;;
23730;SDS011;12046;44.702;10.622;2023-06-05T12:43:15;6.10;;;5.50;;
23730;SDS011;12046;44.702;10.622;2023-06-05T12:45:45;6.20;;;5.70;;
23730;SDS011;12046;44.702;10.622;2023-06-05T12:48:10;5.70;;;5.30;;
23730;SDS011;12046;44.702;10.622;2023-06-05T12:50:38;5.97;;;5.47;;
23730;SDS011;12046;44.702;10.622;2023-06-05T12:53:06;5.82;;;5.32;;
23730;SDS011;12046;44.702;10.622;2023-06-05T12:55:32;5.95;;;5.45;;
23730;SDS011;12046;44.702;10.622;2023-06-05T12:57:58;4.78;;;4.38;;
23730;SDS011;12046;44.702;10.622;2023-06-05T13:00:23;3.78;;;3.47;;
23730;SDS011;12046;44.702;10.622;2023-06-05T13:02:49;4.75;;;4.35;;
23730;SDS011;12046;44.702;10.622;2023-06-05T13:05:15;5.13;;;4.20;;
23730;SDS011;12046;44.702;10.622;2023-06-05T13:07:41;6.97;;;6.38;;
23730;SDS011;12046;44.702;10.622;2023-06-05T13:10:08;5.50;;;5.00;;
23730;SDS011;12046;44.702;10.622;2023-06-05T13:12:36;5.65;;;5.22;;
23730;SDS011;12046;44.702;10.622;2023-06-05T13:15:02;6.30;;;5.82;;
23730;SDS011;12046;44.702;10.622;2023-06-05T13:17:31;6.18;;;5.68;;
23730;SDS011;12046;44.702;10.622;2023-06-05T13:19:59;5.53;;;5.13;;
23730;SDS011;12046;44.702;10.622;2023-06-05T13:22:25;4.75;;;4.35;;
23730;SDS011;12046;44.702;10.622;2023-06-05T13:24:51;4.78;;;4.25;;
23730;SDS011;12046;44.702;10.622;2023-06-05T13:27:17;5.35;;;4.78;;
23730;SDS011;12046;44.702;10.622;2023-06-05T13:29:44;5.03;;;4.55;;
23730;SDS011;12046;44.702;10.622;2023-06-05T13:32:10;4.03;;;3.72;;
23730;SDS011;12046;44.702;10.622;2023-06-05T13:34:36;3.83;;;3.53;;
23730;SDS011;12046;44.702;10.622;2023-06-05T13:37:02;3.65;;;3.35;;
23730;SDS011;12046;44.702;10.622;2023-06-05T13:39:28;3.65;;;3.35;;
23730;SDS011;12046;44.702;10.622;2023-06-05T13:41:54;3.58;;;3.28;;
23730;SDS011;12046;44.702;10.622;2023-06-05T13:44:20;3.90;;;3.60;;
23730;SDS011;12046;44.702;10.622;2023-06-05T13:46:46;3.85;;;3.60;;
23730;SDS011;12046;44.702;10.622;2023-06-05T13:49:12;3.20;;;3.00;;
23730;SDS011;12046;44.702;10.622;2023-06-05T13:51:37;4.00;;;3.70;;
23730;SDS011;12046;44.702;10.622;2023-06-05T13:54:04;3.50;;;3.20;;
23730;SDS011;12046;44.702;10.622;2023-06-05T13:56:30;3.13;;;2.90;;
23730;SDS011;12046;44.702;10.622;2023-06-05T13:58:56;2.90;;;2.60;;
23730;SDS011;12046;44.702;10.622;2023-06-05T14:01:22;2.92;;;2.63;;
23730;SDS011;12046;44.702;10.622;2023-06-05T14:03:48;4.90;;;2.40;;
23730;SDS011;12046;44.702;10.622;2023-06-05T14:06:15;2.75;;;2.55;;
23730;SDS011;12046;44.702;10.622;2023-06-05T14:08:42;2.40;;;2.20;;
23730;SDS011;12046;44.702;10.622;2023-06-05T14:11:08;2.25;;;2.05;;
23730;SDS011;12046;44.702;10.622;2023-06-05T14:13:34;2.55;;;2.10;;
23730;SDS011;12046;44.702;10.622;2023-06-05T14:16:01;2.25;;;2.08;;
23730;SDS011;12046;44.702;10.622;2023-06-05T14:18:28;1.98;;;1.80;;
23730;SDS011;12046;44.702;10.622;2023-06-05T14:20:55;2.15;;;2.05;;
23730;SDS011;12046;44.702;10.622;2023-06-05T14:23:21;2.30;;;1.75;;
23730;SDS011;12046;44.702;10.622;2023-06-05T14:25:51;2.15;;;1.95;;
23730;SDS011;12046;44.702;10.622;2023-06-05T14:28:17;2.72;;;2.00;;
23730;SDS011;12046;44.702;10.622;2023-06-05T14:30:47;2.05;;;1.77;;
23730;SDS011;12046;44.702;10.622;2023-06-05T14:33:13;2.22;;;2.00;;
23730;SDS011;12046;44.702;10.622;2023-06-05T14:35:39;2.13;;;1.88;;
23730;SDS011;12046;44.702;10.622;2023-06-05T14:38:05;1.65;;;1.55;;
23730;SDS011;12046;44.702;10.622;2023-06-05T14:40:31;1.60;;;1.50;;
23730;SDS011;12046;44.702;10.622;2023-06-05T14:42:58;1.40;;;1.30;;
23730;SDS011;12046;44.702;10.622;2023-06-05T14:45:24;1.85;;;1.75;;
23730;SDS011;12046;44.702;10.622;2023-06-05T14:47:50;2.28;;;2.08;;
23730;SDS011;12046;44.702;10.622;2023-06-05T14:50:16;2.40;;;2.20;;
23730;SDS011;12046;44.702;10.622;2023-06-05T14:52:42;3.30;;;3.10;;
23730;SDS011;12046;44.702;10.622;2023-06-05T14:55:08;5.30;;;3.03;;
23730;SDS011;12046;44.702;10.622;2023-06-05T14:57:35;3.88;;;3.58;;
23730;SDS011;12046;44.702;10.622;2023-06-05T15:00:05;4.25;;;3.95;;
23730;SDS011;12046;44.702;10.622;2023-06-05T15:02:31;4.07;;;2.92;;